This is the latest recevied weather packets stored in our database for station/object OK2ILA-10. If no packets are shown the sender has not sent any weather packets the latest 10 day(s).
| Time | Temp. | Humidity | Pressure | Rain* | Wind** | Luminosity | Snow |
|---|---|---|---|---|---|---|---|
| 1787575296 | 23.33° C | 40% | 1022.3 hPa | - | - | - | - |
| 1787574696 | 22.22° C | 40% | 1022.3 hPa | - | - | - | - |
| 1787574106 | 21.67° C | 43% | 1022.4 hPa | - | - | - | - |
| 1787574096 | 21.67° C | 43% | 1022.4 hPa | - | - | - | - |
| 1787573506 | 22.78° C | 41% | 1022.4 hPa | - | - | - | - |
| 1787573495 | 22.78° C | 41% | 1022.4 hPa | - | - | - | - |
| 1787572895 | 23.89° C | 40% | 1022.5 hPa | - | - | - | - |
| 1787572295 | 25° C | 39% | 1022.5 hPa | - | - | - | - |
| 1787571705 | 25° C | 39% | 1022.5 hPa | - | - | - | - |
| 1787571695 | 25° C | 39% | 1022.5 hPa | - | - | - | - |
| 1787571095 | 23.89° C | 40% | 1022.5 hPa | - | - | - | - |
| 1787570494 | 23.33° C | 41% | 1022.6 hPa | - | - | - | - |
| 1787569905 | 22.22° C | 43% | 1022.5 hPa | - | - | - | - |
| 1787569894 | 22.22° C | 43% | 1022.5 hPa | - | - | - | - |
| 1787569294 | 22.22° C | 42% | 1022.6 hPa | - | - | - | - |
| 1787568704 | 21.67° C | 43% | 1022.6 hPa | - | - | - | - |
| 1787568694 | 21.67° C | 43% | 1022.6 hPa | - | - | - | - |
| 1787568093 | 23.33° C | 41% | 1022.6 hPa | - | - | - | - |
| 1787567493 | 23.33° C | 42% | 1022.7 hPa | - | - | - | - |
| 1787566893 | 22.78° C | 43% | 1022.8 hPa | - | - | - | - |
| 1787566293 | 23.33° C | 41% | 1022.9 hPa | - | - | - | - |
| 1787565692 | 23.33° C | 42% | 1022.9 hPa | - | - | - | - |
| 1787565103 | 23.33° C | 42% | 1023 hPa | - | - | - | - |
| 1787565092 | 23.33° C | 42% | 1023 hPa | - | - | - | - |
| 1787564531 | 22.78° C | 42% | 1023 hPa | - | - | - | - |
* Rain since midnight (hover to see other rain measurements)
** Current wind speed in m/s (hover to see current wind gust speed)